createdAt,value
2022-08-08T00:03:59.696Z,12.75
2022-08-08T00:19:00.488Z,12.75
2022-08-08T00:34:18.515Z,12.70
2022-08-08T00:49:22.022Z,12.45
2022-08-08T01:04:12.689Z,12.31
2022-08-08T01:19:25.490Z,11.98
2022-08-08T01:34:20.269Z,11.64
2022-08-08T01:49:23.325Z,11.44
2022-08-08T02:04:25.846Z,11.18
2022-08-08T02:20:08.061Z,11.11
2022-08-08T02:34:35.693Z,10.97
2022-08-08T02:49:51.065Z,11.02
2022-08-08T03:05:05.090Z,10.76
2022-08-08T03:19:51.561Z,10.56
2022-08-08T03:34:52.362Z,10.61
2022-08-08T03:50:01.149Z,10.45
2022-08-08T04:04:57.931Z,10.48
2022-08-08T04:19:58.036Z,10.44
2022-08-08T04:34:58.812Z,10.70
2022-08-08T04:50:04.564Z,12.02
2022-08-08T05:05:04.897Z,13.71
2022-08-08T05:20:13.293Z,15.21
2022-08-08T05:35:13.565Z,16.79
2022-08-08T05:50:14.971Z,18.20
2022-08-08T06:05:33.576Z,19.19
2022-08-08T06:20:25.745Z,20.58
2022-08-08T06:36:03.926Z,21.64
2022-08-08T06:50:33.904Z,22.58
2022-08-08T07:05:40.326Z,23.54
2022-08-08T07:20:50.497Z,24.80
2022-08-08T07:35:48.642Z,25.57
2022-08-08T07:50:52.510Z,26.65
2022-08-08T08:05:53.657Z,27.28
2022-08-08T08:20:54.887Z,27.88
2022-08-08T08:36:19.340Z,28.11
2022-08-08T08:51:03.345Z,28.67
2022-08-08T09:06:04.269Z,29.14
2022-08-08T09:21:58.132Z,29.82
2022-08-08T09:36:19.210Z,30.39
2022-08-08T09:51:23.103Z,30.58
2022-08-08T10:06:29.496Z,30.89
2022-08-08T10:21:32.897Z,30.75
2022-08-08T10:36:34.410Z,30.86
2022-08-08T10:51:47.178Z,31.51
2022-08-08T11:06:47.490Z,31.89
2022-08-08T11:21:55.515Z,32.03
2022-08-08T11:36:58.562Z,30.57
2022-08-08T11:51:59.319Z,28.93
2022-08-08T12:07:04.654Z,28.68
2022-08-08T12:22:13.910Z,29.86
2022-08-08T12:37:14.413Z,29.06
2022-08-08T12:52:28.644Z,29.67
2022-08-08T13:08:03.873Z,30.79
2022-08-08T13:22:28.515Z,31.81
2022-08-08T13:38:05.214Z,32.89
2022-08-08T13:52:37.948Z,33.11
2022-08-08T14:07:42.400Z,32.26
2022-08-08T14:22:43.163Z,31.75
2022-08-08T14:38:00.922Z,31.50
2022-08-08T14:52:49.988Z,31.78
2022-08-08T15:07:50.615Z,32.03
2022-08-08T15:22:57.373Z,29.86
2022-08-08T15:37:58.485Z,29.24
2022-08-08T15:53:00.614Z,29.60
2022-08-08T16:08:01.710Z,29.04
2022-08-08T16:23:04.896Z,29.05
2022-08-08T16:38:12.368Z,28.74
2022-08-08T16:55:05.351Z,28.04
2022-08-08T17:08:20.545Z,26.95
2022-08-08T17:23:58.564Z,26.10
2022-08-08T17:38:31.113Z,25.39
2022-08-08T17:53:43.170Z,24.85
2022-08-08T18:08:41.916Z,24.22
2022-08-08T18:23:52.799Z,23.57
2022-08-08T18:38:49.932Z,23.02
2022-08-08T18:54:02.895Z,22.40
2022-08-08T19:08:58.743Z,21.72
2022-08-08T19:23:59.364Z,21.10
2022-08-08T19:39:03.414Z,20.51
2022-08-08T19:54:04.010Z,19.81
2022-08-08T20:09:09.143Z,19.21
2022-08-08T20:24:10.846Z,18.76
2022-08-08T20:39:11.113Z,18.23
2022-08-08T20:54:14.239Z,17.96
2022-08-08T21:09:17.996Z,17.59
2022-08-08T21:24:30.078Z,17.26
2022-08-08T21:39:54.613Z,17.22
2022-08-08T21:55:01.903Z,17.26
2022-08-08T22:09:40.927Z,17.00
2022-08-08T22:24:44.521Z,16.66
2022-08-08T22:40:00.135Z,16.83
2022-08-08T22:55:04.622Z,16.86
2022-08-08T23:09:58.750Z,16.53
2022-08-08T23:25:00.215Z,16.27
2022-08-08T23:40:01.396Z,16.01
2022-08-08T23:55:14.223Z,15.97
